Time;durP1;ratioP1;P1;durP2;ratioP2;P2;SDS_P1;SDS_P2;PMS_P1;PMS_P2;Temp;Humidity;BMP_temperature;BMP_pressure;BME280_temperature;BME280_humidity;BME280_pressure;Samples;Min_cycle;Max_cycle;Signal;HPM_P1;HPM_P2
2022/04/18 00:01:23;;;;;;;0.60;0.60;;;;;;;3.23;100.00;101033.06;4967777;28;20480;-79
2022/04/18 00:03:48;;;;;;;0.50;0.50;;;;;;;3.13;100.00;101023.28;4968566;28;20038;-79
2022/04/18 00:06:14;;;;;;;1.15;1.13;;;;;;;3.19;100.00;101031.63;5005952;28;20033;-77
2022/04/18 00:08:40;;;;;;;2.15;1.63;;;;;;;3.14;100.00;101027.63;4955546;28;20088;-78
2022/04/18 00:11:05;;;;;;;0.70;0.70;;;;;;;3.12;100.00;101032.22;4969298;28;20518;-80
2022/04/18 00:13:31;;;;;;;0.40;0.40;;;;;;;3.07;100.00;101044.06;4976455;28;20392;-79
2022/04/18 00:15:56;;;;;;;0.40;0.40;;;;;;;2.86;100.00;101019.19;4971112;28;20379;-76
2022/04/18 00:18:22;;;;;;;1.38;1.35;;;;;;;2.98;100.00;101044.78;4984933;28;20402;-80
2022/04/18 00:20:48;;;;;;;0.77;0.77;;;;;;;2.95;100.00;101038.88;5014664;28;20038;-76
2022/04/18 00:23:13;;;;;;;0.82;0.82;;;;;;;2.86;100.00;101035.13;4953690;28;20049;-79
2022/04/18 00:25:39;;;;;;;0.77;0.63;;;;;;;2.88;100.00;101027.00;4971241;28;20570;-78
2022/04/18 00:28:05;;;;;;;0.60;0.60;;;;;;;2.85;100.00;101034.25;4973162;28;20045;-78
2022/04/18 00:30:30;;;;;;;1.10;1.10;;;;;;;2.80;100.00;101038.22;4957373;28;20388;-79
2022/04/18 00:32:58;;;;;;;0.52;0.45;;;;;;;2.66;100.00;101035.81;4958620;28;20038;-78
2022/04/18 00:35:24;;;;;;;0.50;0.50;;;;;;;2.48;100.00;101038.88;4986121;28;20037;-79
2022/04/18 00:37:51;;;;;;;1.38;1.30;;;;;;;2.45;100.00;101046.25;4967711;28;20030;-81
2022/04/18 00:40:20;;;;;;;0.40;0.40;;;;;;;2.45;100.00;101040.94;4983921;28;21782;-78
2022/04/18 00:42:46;;;;;;;0.70;0.70;;;;;;;2.63;100.00;101047.50;4955614;28;20514;-80
2022/04/18 00:45:11;;;;;;;0.40;0.40;;;;;;;2.71;100.00;101053.06;4996852;28;20258;-78
2022/04/18 00:47:37;;;;;;;0.80;0.80;;;;;;;2.70;100.00;101043.44;4957378;28;20030;-79
2022/04/18 00:50:03;;;;;;;0.52;0.52;;;;;;;2.68;100.00;101052.47;4986891;28;20062;-77
2022/04/18 00:52:30;;;;;;;0.60;0.60;;;;;;;2.61;100.00;101058.22;4979679;28;20032;-79
2022/04/18 00:54:57;;;;;;;1.13;1.05;;;;;;;2.52;100.00;101044.84;4975327;28;20064;-78
2022/04/18 00:57:23;;;;;;;0.65;0.65;;;;;;;2.40;100.00;101044.78;4959312;28;20080;-79
2022/04/18 00:59:51;;;;;;;0.50;0.50;;;;;;;2.36;100.00;101053.09;4991744;28;20301;-78
2022/04/18 01:02:17;;;;;;;0.45;0.45;;;;;;;2.25;100.00;101045.09;4987490;28;20088;-79
2022/04/18 01:04:49;;;;;;;0.50;0.50;;;;;;;2.32;100.00;101052.47;5002956;28;20246;-80
2022/04/18 01:07:17;;;;;;;0.50;0.50;;;;;;;2.36;100.00;101043.34;4958697;28;20042;-79
2022/04/18 01:09:43;;;;;;;0.60;0.60;;;;;;;2.43;100.00;101038.38;4961314;28;20040;-79
2022/04/18 01:12:09;;;;;;;0.43;0.43;;;;;;;2.50;100.00;101049.41;4972803;28;20037;-81
2022/04/18 01:14:36;;;;;;;0.70;0.70;;;;;;;2.40;100.00;101044.78;5008143;28;20226;-78
2022/04/18 01:17:02;;;;;;;0.50;0.50;;;;;;;2.49;100.00;101040.59;5000412;28;20038;-78
2022/04/18 01:19:28;;;;;;;0.88;0.88;;;;;;;2.55;100.00;101018.06;4974783;28;20076;-80
2022/04/18 01:21:53;;;;;;;0.55;0.55;;;;;;;2.56;100.00;101011.75;4990418;28;20128;-80
2022/04/18 01:29:48;;;;;;;0.85;0.85;;;;;;;2.61;100.00;101030.84;4975067;28;20491;-81
2022/04/18 01:32:13;;;;;;;0.50;0.50;;;;;;;2.55;100.00;101041.94;4958707;28;20044;-82
2022/04/18 01:34:39;;;;;;;2.10;1.30;;;;;;;2.49;100.00;101027.34;5004881;28;20422;-78
2022/04/18 01:37:05;;;;;;;0.75;0.75;;;;;;;2.45;100.00;101011.75;4970321;28;20082;-79
2022/04/18 01:39:30;;;;;;;0.85;0.85;;;;;;;2.50;100.00;101029.00;4958458;28;20036;-81
2022/04/18 01:41:56;;;;;;;1.10;1.10;;;;;;;2.33;100.00;101006.41;4972167;28;20033;-78
2022/04/18 01:44:21;;;;;;;0.50;0.50;;;;;;;2.46;100.00;101016.94;4970529;28;20052;-79
2022/04/18 01:46:47;;;;;;;0.60;0.60;;;;;;;2.55;100.00;101036.63;4981671;28;20410;-79
2022/04/18 01:49:13;;;;;;;0.40;0.40;;;;;;;2.48;100.00;101030.94;4981346;28;20083;-80
2022/04/18 01:51:38;;;;;;;0.52;0.52;;;;;;;2.48;100.00;101033.59;4960323;28;20026;-80
2022/04/18 01:54:04;;;;;;;8.02;1.13;;;;;;;2.38;100.00;101027.28;4990345;28;20052;-80
2022/04/18 01:56:29;;;;;;;0.63;0.63;;;;;;;2.39;100.00;101031.63;4968041;28;20042;-79
2022/04/18 01:58:55;;;;;;;0.70;0.70;;;;;;;2.39;100.00;101039.59;4973261;28;20526;-80
2022/04/18 02:01:20;;;;;;;3.70;1.40;;;;;;;2.32;100.00;101033.06;4986159;28;20052;-78
2022/04/18 02:03:46;;;;;;;0.57;0.57;;;;;;;2.41;100.00;101046.50;4972044;28;20030;-79
2022/04/18 02:06:11;;;;;;;0.77;0.77;;;;;;;2.47;100.00;101039.88;4953504;28;20040;-79
2022/04/18 02:08:37;;;;;;;10.85;0.82;;;;;;;2.39;100.00;101011.25;4983936;28;20051;-77
2022/04/18 02:11:05;;;;;;;0.50;0.50;;;;;;;2.42;100.00;101018.13;4956766;28;20042;-78
2022/04/18 02:13:30;;;;;;;0.60;0.60;;;;;;;2.29;100.00;101006.75;4971728;28;20865;-78
2022/04/18 02:15:57;;;;;;;0.63;0.63;;;;;;;2.27;100.00;101003.38;4969952;28;20033;-78
2022/04/18 02:18:23;;;;;;;0.60;0.60;;;;;;;2.35;100.00;101011.59;4970829;28;20659;-77
2022/04/18 02:20:49;;;;;;;0.70;0.70;;;;;;;2.39;100.00;101021.88;4990279;28;20452;-77
2022/04/18 02:23:15;;;;;;;0.80;0.80;;;;;;;2.44;100.00;101026.00;4983837;28;20270;-78
2022/04/18 02:25:41;;;;;;;5.25;0.77;;;;;;;2.54;100.00;101027.81;4976408;28;20057;-78
2022/04/18 02:28:07;;;;;;;0.50;0.50;;;;;;;2.61;100.00;101036.16;4983325;28;20128;-79
2022/04/18 02:30:32;;;;;;;0.85;0.85;;;;;;;2.69;100.00;101035.56;5005027;28;20038;-77
2022/04/18 02:32:58;;;;;;;0.50;0.50;;;;;;;2.78;100.00;101027.75;4964997;28;20084;-79
2022/04/18 02:35:25;;;;;;;0.52;0.52;;;;;;;2.94;100.00;101026.53;4988172;28;20076;-79
2022/04/18 02:37:51;;;;;;;1.35;1.25;;;;;;;3.05;100.00;101024.75;5006485;28;20053;-77
2022/04/18 02:40:17;;;;;;;10.07;1.23;;;;;;;3.07;100.00;101014.00;4957771;28;20132;-77
2022/04/18 02:42:43;;;;;;;0.55;0.55;;;;;;;3.05;100.00;101014.13;4976295;28;20622;-79
2022/04/18 02:45:14;;;;;;;0.63;0.63;;;;;;;2.94;100.00;101006.16;4954647;28;20033;-80
2022/04/18 02:47:40;;;;;;;0.75;0.75;;;;;;;3.02;100.00;101011.69;4972640;28;20080;-77
2022/04/18 02:50:07;;;;;;;0.50;0.50;;;;;;;3.16;100.00;101015.06;5006804;28;20030;-80
2022/04/18 02:52:32;;;;;;;0.73;0.73;;;;;;;3.23;100.00;101013.63;4976608;28;20030;-77
2022/04/18 02:54:58;;;;;;;0.82;0.82;;;;;;;3.39;100.00;101011.44;4991586;28;20373;-77
2022/04/18 02:57:24;;;;;;;0.40;0.40;;;;;;;3.44;100.00;101003.94;4988833;28;20044;-77
2022/04/18 02:59:50;;;;;;;0.50;0.50;;;;;;;3.62;100.00;101030.00;4974039;28;20045;-80
2022/04/18 03:02:24;;;;;;;0.40;0.40;;;;;;;3.72;100.00;101022.97;4995208;28;20056;-77
2022/04/18 03:04:51;;;;;;;1.17;1.17;;;;;;;3.82;100.00;101028.38;5008075;28;20048;-78
2022/04/18 03:07:19;;;;;;;2.25;1.20;;;;;;;3.80;100.00;101032.97;4968625;28;20318;-79
2022/04/18 03:09:44;;;;;;;0.52;0.52;;;;;;;3.84;100.00;101037.94;4983195;28;20048;-77
2022/04/18 03:12:10;;;;;;;1.85;0.77;;;;;;;3.71;100.00;101022.13;4995507;28;20033;-78
2022/04/18 03:14:36;;;;;;;0.60;0.60;;;;;;;3.89;100.00;101040.19;4963182;28;20065;-79
2022/04/18 03:17:02;;;;;;;2.00;1.42;;;;;;;3.91;100.00;101038.25;4970446;28;20121;-77
2022/04/18 03:19:27;;;;;;;3.13;1.52;;;;;;;3.83;100.00;101032.72;4977521;28;20030;-77
2022/04/18 03:21:53;;;;;;;2.30;1.25;;;;;;;3.78;100.00;101033.09;4970845;28;20050;-77
2022/04/18 03:24:19;;;;;;;1.25;1.23;;;;;;;3.68;100.00;101026.84;4982703;28;20047;-78
2022/04/18 03:26:45;;;;;;;0.55;0.55;;;;;;;3.66;100.00;101026.13;4983318;28;20043;-80
2022/04/18 03:29:11;;;;;;;0.88;0.88;;;;;;;3.57;100.00;101014.41;4982436;28;20454;-79
2022/04/18 03:31:36;;;;;;;0.60;0.60;;;;;;;3.55;100.00;101005.72;4981959;28;21684;-77
2022/04/18 03:34:02;;;;;;;3.35;1.48;;;;;;;3.68;100.00;101026.84;4967628;28;20445;-77
2022/04/18 03:41:56;;;;;;;0.40;0.40;;;;;;;3.67;100.00;101025.16;4984864;28;20037;-78
2022/04/18 03:44:22;;;;;;;0.63;0.63;;;;;;;3.68;100.00;101027.69;4964573;28;20037;-79
2022/04/18 03:46:47;;;;;;;1.05;0.80;;;;;;;3.65;100.00;101025.28;4965884;28;20049;-78
2022/04/18 03:49:13;;;;;;;0.77;0.77;;;;;;;3.58;100.00;101001.97;4950121;28;20038;-78
2022/04/18 03:51:38;;;;;;;0.40;0.40;;;;;;;3.67;100.00;101010.03;4968329;28;20100;-77
2022/04/18 03:54:04;;;;;;;0.52;0.52;;;;;;;3.63;100.00;101007.75;4951046;28;20541;-77
2022/04/18 03:56:30;;;;;;;0.70;0.70;;;;;;;3.58;100.00;101000.16;4969869;28;20030;-77
2022/04/18 03:59:01;;;;;;;0.60;0.60;;;;;;;3.65;100.00;101011.13;5003695;28;20029;-78
2022/04/18 04:01:27;;;;;;;0.40;0.40;;;;;;;3.65;100.00;101004.00;4965800;28;20613;-78
2022/04/18 04:03:53;;;;;;;0.60;0.60;;;;;;;3.61;100.00;100983.09;4968950;28;20041;-78
2022/04/18 04:06:18;;;;;;;0.50;0.50;;;;;;;3.66;100.00;100999.53;4950251;28;20120;-77
2022/04/18 04:08:44;;;;;;;0.52;0.52;;;;;;;3.71;100.00;100994.69;4985328;28;20096;-77
2022/04/18 04:11:10;;;;;;;0.40;0.40;;;;;;;3.89;100.00;101005.59;4969146;28;20512;-76
2022/04/18 04:13:35;;;;;;;0.40;0.40;;;;;;;3.95;100.00;101007.78;4955599;28;20480;-78
2022/04/18 04:16:01;;;;;;;0.50;0.50;;;;;;;3.96;100.00;100998.81;4960597;28;20044;-79
2022/04/18 04:18:27;;;;;;;0.80;0.80;;;;;;;3.95;100.00;101003.31;4963129;28;20128;-78
2022/04/18 04:20:52;;;;;;;0.40;0.40;;;;;;;3.84;100.00;100995.38;4971333;28;20046;-77
2022/04/18 04:23:18;;;;;;;0.52;0.52;;;;;;;3.97;100.00;101011.16;4966432;28;20034;-77
2022/04/18 04:25:43;;;;;;;0.73;0.73;;;;;;;3.99;100.00;101019.00;4978849;28;20399;-79
2022/04/18 04:28:12;;;;;;;0.40;0.40;;;;;;;4.04;100.00;101019.47;4976689;28;20399;-77
2022/04/18 04:30:37;;;;;;;0.80;0.80;;;;;;;4.02;100.00;101006.28;4990400;28;20042;-78
2022/04/18 04:33:03;;;;;;;0.40;0.40;;;;;;;4.12;100.00;101012.53;4972925;28;20384;-77
2022/04/18 04:35:29;;;;;;;0.50;0.50;;;;;;;4.16;100.00;100999.84;4958324;28;20044;-78
2022/04/18 04:37:54;;;;;;;0.40;0.40;;;;;;;4.20;100.00;101006.56;4960758;28;20483;-77
2022/04/18 04:40:21;;;;;;;0.40;0.40;;;;;;;4.30;100.00;101014.63;4978979;28;20661;-78
2022/04/18 04:42:46;;;;;;;0.43;0.43;;;;;;;4.32;100.00;101015.34;4994510;28;20045;-77
2022/04/18 04:45:14;;;;;;;0.50;0.50;;;;;;;4.35;100.00;101021.25;4957716;28;20109;-78
2022/04/18 04:47:40;;;;;;;0.70;0.70;;;;;;;4.36;100.00;101017.63;4976311;28;20042;-77
2022/04/18 04:50:06;;;;;;;0.50;0.50;;;;;;;4.37;100.00;101008.66;4962040;28;20085;-79
2022/04/18 04:52:32;;;;;;;0.40;0.40;;;;;;;4.37;100.00;101014.00;4990620;28;20033;-79
2022/04/18 04:54:57;;;;;;;0.40;0.40;;;;;;;4.38;100.00;101018.34;4975060;28;20553;-77
2022/04/18 04:57:23;;;;;;;0.40;0.40;;;;;;;4.15;100.00;100984.81;4956454;28;20048;-78
2022/04/18 04:59:48;;;;;;;0.45;0.45;;;;;;;4.36;100.00;101025.59;4988376;28;20125;-78
2022/04/18 05:02:14;;;;;;;0.40;0.40;;;;;;;4.37;100.00;101024.66;4975944;28;20116;-78
2022/04/18 05:04:40;;;;;;;1.52;0.63;;;;;;;4.45;100.00;101039.97;4974429;28;20038;-78
2022/04/18 05:07:07;;;;;;;0.50;0.50;;;;;;;4.35;100.00;101031.91;4991847;28;20096;-78
2022/04/18 05:09:33;;;;;;;0.43;0.43;;;;;;;4.40;100.00;101037.69;4974617;28;20121;-78
2022/04/18 05:11:58;;;;;;;0.40;0.40;;;;;;;4.28;100.00;101022.75;4963513;28;20129;-78
2022/04/18 05:14:24;;;;;;;0.40;0.40;;;;;;;4.25;100.00;101025.66;4984384;28;20435;-78
2022/04/18 05:16:50;;;;;;;0.40;0.40;;;;;;;4.25;100.00;101036.31;4963088;28;20395;-80
2022/04/18 05:19:16;;;;;;;0.40;0.40;;;;;;;4.15;100.00;101044.22;4968620;28;20026;-77
2022/04/18 05:21:41;;;;;;;0.40;0.40;;;;;;;3.97;100.00;101033.28;4972230;28;20038;-78
2022/04/18 05:24:07;;;;;;;0.40;0.40;;;;;;;3.71;100.00;101015.97;4989783;28;20038;-78
2022/04/18 05:26:33;;;;;;;0.40;0.40;;;;;;;3.46;100.00;100990.50;4982903;28;20029;-79
2022/04/18 05:28:58;;;;;;;0.40;0.40;;;;;;;3.46;100.00;101019.75;4954669;28;20045;-80
2022/04/18 05:31:24;;;;;;;0.40;0.40;;;;;;;3.41;100.00;101037.88;4982568;28;20022;-78
2022/04/18 05:33:49;;;;;;;0.40;0.40;;;;;;;3.31;100.00;101037.78;5000447;28;20037;-79
2022/04/18 05:36:17;;;;;;;0.60;0.60;;;;;;;3.24;100.00;101037.41;4988687;28;20080;-80
2022/04/18 05:38:43;;;;;;;0.40;0.40;;;;;;;3.19;100.00;101034.28;4967262;28;20636;-78
2022/04/18 05:41:08;;;;;;;0.40;0.40;;;;;;;3.07;100.00;101024.63;4982179;28;20042;-80
2022/04/18 05:43:34;;;;;;;0.40;0.40;;;;;;;2.94;100.00;101032.72;4974789;28;20113;-78
2022/04/18 05:46:00;;;;;;;0.40;0.40;;;;;;;2.85;100.00;101030.75;4988439;28;20038;-79
2022/04/18 05:48:25;;;;;;;0.40;0.40;;;;;;;2.83;100.00;101032.69;4970113;28;20037;-80
2022/04/18 05:50:51;;;;;;;0.40;0.40;;;;;;;2.92;100.00;101034.63;5003185;28;20120;-79
2022/04/18 05:53:16;;;;;;;1.17;0.85;;;;;;;3.05;100.00;101051.31;4953079;28;20130;-80
2022/04/18 05:55:42;;;;;;;0.40;0.40;;;;;;;3.16;100.00;101049.63;4963625;28;20038;-79
2022/04/18 05:58:08;;;;;;;0.40;0.40;;;;;;;3.24;100.00;101048.03;4974821;28;20113;-79
2022/04/18 06:00:34;;;;;;;0.40;0.40;;;;;;;3.43;100.00;101055.41;4981061;28;20724;-78
2022/04/18 06:03:02;;;;;;;0.40;0.40;;;;;;;3.45;100.00;101039.34;4970848;28;20050;-78
2022/04/18 06:05:28;;;;;;;0.40;0.40;;;;;;;3.56;100.00;101062.41;4958753;28;20123;-80
2022/04/18 06:07:53;;;;;;;0.50;0.50;;;;;;;3.64;100.00;101057.31;4995377;28;20077;-77
2022/04/18 06:10:19;;;;;;;0.40;0.40;;;;;;;3.70;100.00;101065.63;4973881;28;20037;-82
2022/04/18 06:12:45;;;;;;;0.40;0.40;;;;;;;3.89;100.00;101070.31;4977809;28;20034;-76
2022/04/18 06:15:11;;;;;;;0.50;0.50;;;;;;;4.07;100.00;101069.78;4959000;28;20137;-79
2022/04/18 06:17:36;;;;;;;0.40;0.40;;;;;;;4.31;100.00;101067.75;4997151;28;20057;-78
2022/04/18 06:20:03;;;;;;;0.50;0.50;;;;;;;4.47;100.00;101067.28;4997097;28;20034;-78
2022/04/18 06:22:29;;;;;;;0.40;0.40;;;;;;;4.60;100.00;101072.44;4994157;28;20030;-79
2022/04/18 06:24:54;;;;;;;0.50;0.50;;;;;;;4.67;100.00;101081.59;4970525;28;20042;-79
2022/04/18 06:27:20;;;;;;;0.88;0.82;;;;;;;4.73;100.00;101088.22;5007670;28;20112;-77
2022/04/18 06:29:46;;;;;;;0.40;0.40;;;;;;;4.72;100.00;101073.25;5009620;28;20049;-77
2022/04/18 06:32:11;;;;;;;0.40;0.40;;;;;;;4.79;100.00;101071.72;4978108;28;20120;-78
2022/04/18 06:34:37;;;;;;;0.40;0.40;;;;;;;5.01;100.00;101084.91;4984481;28;20038;-79
2022/04/18 06:37:03;;;;;;;0.50;0.50;;;;;;;5.28;100.00;101089.66;4975275;28;20201;-78
2022/04/18 06:39:28;;;;;;;0.45;0.45;;;;;;;5.60;100.00;101070.00;4960134;28;20022;-77
2022/04/18 06:41:55;;;;;;;0.93;0.93;;;;;;;6.12;100.00;101080.53;4963662;28;20042;-78
2022/04/18 06:44:21;;;;;;;0.45;0.45;;;;;;;6.65;100.00;101087.28;4955396;28;20103;-80
2022/04/18 06:46:46;;;;;;;1.00;1.00;;;;;;;6.97;100.00;101078.94;4991402;28;20030;-78
2022/04/18 06:49:12;;;;;;;0.45;0.45;;;;;;;7.23;100.00;101085.31;4994653;28;20038;-81
2022/04/18 06:51:39;;;;;;;0.50;0.50;;;;;;;7.46;100.00;101079.59;4962451;28;20045;-80
2022/04/18 06:54:05;;;;;;;0.50;0.50;;;;;;;7.48;100.00;101082.97;4963580;28;20048;-81
2022/04/18 06:59:15;;;;;;;0.40;0.40;;;;;;;7.20;100.00;101074.94;5020986;28;20018;-81
2022/04/18 07:01:41;;;;;;;0.40;0.40;;;;;;;7.11;100.00;101086.47;4989347;28;20037;-82
2022/04/18 07:04:07;;;;;;;0.40;0.40;;;;;;;7.00;100.00;101087.50;4972621;28;20040;-80
2022/04/18 07:06:33;;;;;;;0.40;0.40;;;;;;;6.83;100.00;101077.56;4988221;28;20026;-82
2022/04/18 07:08:58;;;;;;;0.40;0.40;;;;;;;6.87;100.00;101081.63;5020712;28;20041;-81
2022/04/18 07:11:24;;;;;;;0.40;0.40;;;;;;;6.90;100.00;101089.34;4975619;28;20036;-83
2022/04/18 07:13:50;;;;;;;0.40;0.40;;;;;;;6.82;100.00;101054.47;5004716;28;20044;-82
2022/04/18 07:16:16;;;;;;;0.40;0.40;;;;;;;7.14;100.00;101072.81;4996251;28;20111;-80
2022/04/18 07:18:41;;;;;;;0.50;0.50;;;;;;;7.34;100.00;101062.06;4975057;28;20105;-83
2022/04/18 07:21:07;;;;;;;0.40;0.40;;;;;;;7.62;100.00;101089.66;4971339;28;20030;-79
2022/04/18 07:23:32;;;;;;;0.50;0.50;;;;;;;7.92;100.00;101083.16;4971825;28;20029;-81
2022/04/18 07:26:00;;;;;;;0.40;0.40;;;;;;;8.21;100.00;101074.94;4967230;28;20051;-78
2022/04/18 07:28:29;;;;;;;0.50;0.50;;;;;;;8.76;100.00;101077.47;4985706;28;20030;-82
2022/04/18 07:30:55;;;;;;;0.50;0.50;;;;;;;9.61;100.00;101085.66;4991886;28;20030;-80
2022/04/18 07:33:20;;;;;;;0.50;0.50;;;;;;;10.12;100.00;101093.69;4957387;28;20044;-81
2022/04/18 07:35:46;;;;;;;0.50;0.50;;;;;;;10.08;100.00;101087.81;4964013;28;20037;-77
2022/04/18 07:40:56;;;;;;;0.50;0.50;;;;;;;10.04;100.00;101105.28;4994287;28;20034;-80
2022/04/18 07:43:24;;;;;;;0.40;0.40;;;;;;;9.86;100.00;101099.16;4992205;28;20037;-81
2022/04/18 07:45:50;;;;;;;0.40;0.40;;;;;;;9.43;100.00;101096.47;4994162;28;20104;-80
2022/04/18 07:48:15;;;;;;;0.40;0.40;;;;;;;8.93;100.00;101104.38;4997941;28;20034;-78
2022/04/18 07:53:25;;;;;;;0.40;0.40;;;;;;;8.14;100.00;101106.00;4994917;28;20091;-78
2022/04/18 07:55:51;;;;;;;0.40;0.40;;;;;;;7.94;100.00;101110.66;4973897;28;20057;-82
2022/04/18 07:58:16;;;;;;;0.40;0.40;;;;;;;7.97;100.00;101096.94;5001378;28;20363;-82
2022/04/18 08:00:42;;;;;;;0.50;0.50;;;;;;;8.27;100.00;101106.47;4959473;28;20033;-81
2022/04/18 08:03:08;;;;;;;0.50;0.50;;;;;;;9.13;100.00;101099.63;5000568;28;20022;-82
2022/04/18 08:05:33;;;;;;;0.80;0.80;;;;;;;11.80;97.45;101090.34;4968842;28;20460;-80
2022/04/18 08:07:59;;;;;;;0.50;0.50;;;;;;;13.44;87.87;101105.25;4966929;28;20038;-78
2022/04/18 08:10:25;;;;;;;0.50;0.50;;;;;;;12.29;93.13;101087.38;4979224;28;20394;-77
2022/04/18 08:12:50;;;;;;;0.60;0.60;;;;;;;13.12;93.14;101106.41;4971223;28;20032;-79
2022/04/18 08:15:16;;;;;;;0.50;0.50;;;;;;;13.11;90.01;101116.38;4990971;28;20030;-80
2022/04/18 08:17:42;;;;;;;0.70;0.70;;;;;;;13.84;86.78;101101.25;4973914;28;20033;-78
2022/04/18 08:20:07;;;;;;;0.40;0.40;;;;;;;14.11;86.23;101106.97;4976679;28;20040;-79
2022/04/18 08:22:33;;;;;;;0.57;0.57;;;;;;;13.41;90.51;101127.25;4962655;28;20125;-78
2022/04/18 08:24:59;;;;;;;0.50;0.50;;;;;;;12.62;92.05;101107.88;4979742;28;20474;-77
2022/04/18 08:27:25;;;;;;;0.40;0.40;;;;;;;12.06;94.49;101119.69;4988515;28;20044;-77
2022/04/18 08:29:50;;;;;;;0.40;0.40;;;;;;;11.57;97.49;101117.19;4978824;28;20032;-80
2022/04/18 08:32:16;;;;;;;0.80;0.80;;;;;;;14.01;89.85;101128.06;4956491;28;20113;-79
2022/04/18 08:34:41;;;;;;;0.70;0.70;;;;;;;16.92;78.84;101135.59;4973327;28;20459;-81
2022/04/18 08:37:07;;;;;;;0.40;0.40;;;;;;;16.80;76.50;101129.94;4952329;28;20060;-77
2022/04/18 08:39:33;;;;;;;0.50;0.50;;;;;;;15.30;83.93;101109.09;4981015;28;20560;-78
2022/04/18 08:41:59;;;;;;;0.40;0.40;;;;;;;17.42;78.23;101125.09;4969209;28;20041;-78
2022/04/18 08:44:29;;;;;;;0.40;0.40;;;;;;;14.75;85.17;101108.88;4972152;28;20463;-81
2022/04/18 08:46:58;;;;;;;0.40;0.40;;;;;;;12.90;90.18;101122.47;4976033;28;20053;-78
2022/04/18 08:54:53;;;;;;;0.70;0.70;;;;;;;16.34;81.22;101130.66;4978542;28;20033;-77
2022/04/18 08:57:19;;;;;;;0.70;0.70;;;;;;;18.46;72.67;101123.25;4976228;28;20022;-78
2022/04/18 08:59:45;;;;;;;0.70;0.70;;;;;;;19.49;67.01;101132.91;4983003;28;20033;-80
2022/04/18 09:02:10;;;;;;;0.90;0.90;;;;;;;20.20;64.74;101137.75;4963100;28;20030;-78
2022/04/18 09:04:39;;;;;;;0.85;0.85;;;;;;;20.46;65.03;101140.38;4958435;28;20032;-81
2022/04/18 09:07:12;;;;;;;0.73;0.73;;;;;;;19.38;68.76;101120.03;5010184;28;20022;-78
2022/04/18 09:09:38;;;;;;;0.52;0.52;;;;;;;18.23;71.89;101126.50;4964434;28;20033;-77
2022/04/18 09:12:16;;;;;;;0.60;0.60;;;;;;;17.11;76.04;101136.63;5005237;28;20026;-77
2022/04/18 09:14:42;;;;;;;0.80;0.80;;;;;;;16.15;80.17;101139.59;4973062;28;20033;-79
2022/04/18 09:17:09;;;;;;;2.47;0.70;;;;;;;15.29;83.97;101140.75;4966031;28;20487;-81
2022/04/18 09:19:35;;;;;;;0.50;0.50;;;;;;;14.37;85.07;101140.72;4969244;28;20034;-76
2022/04/18 09:22:02;;;;;;;0.75;0.60;;;;;;;13.64;89.14;101138.78;5008091;28;20438;-76
2022/04/18 09:24:34;;;;;;;1.85;0.70;;;;;;;12.70;92.31;101114.06;4974903;28;20131;-80
2022/04/18 09:27:13;;;;;;;2.00;1.00;;;;;;;12.06;95.42;101127.78;5000236;28;20030;-77
2022/04/18 09:29:42;;;;;;;0.90;0.82;;;;;;;11.83;96.75;101132.25;4975159;28;20116;-78
2022/04/18 09:32:11;;;;;;;2.15;1.10;;;;;;;11.98;95.26;101140.47;4972411;28;20038;-79
2022/04/18 09:34:38;;;;;;;4.68;1.15;;;;;;;13.34;89.55;101131.72;4992924;28;20030;-77
2022/04/18 09:37:10;;;;;;;4.18;1.00;;;;;;;14.03;85.68;101140.34;4993353;28;20606;-77
2022/04/18 09:39:36;;;;;;;3.30;1.42;;;;;;;16.57;77.80;101154.75;4982353;28;20034;-77
2022/04/18 09:42:11;;;;;;;2.78;2.50;;;;;;;17.75;73.87;101143.22;4997218;28;20041;-82
2022/04/18 09:44:37;;;;;;;2.95;1.20;;;;;;;18.88;68.16;101119.00;4998620;28;20061;-84
2022/04/18 09:47:04;;;;;;;2.20;1.58;;;;;;;19.85;65.76;101145.75;4973406;28;20077;-84
2022/04/18 09:49:37;;;;;;;4.78;1.40;;;;;;;19.99;65.44;101141.78;4977441;28;20034;-82
2022/04/18 09:52:06;;;;;;;2.13;1.20;;;;;;;20.35;65.17;101139.22;4963062;28;20058;-84
2022/04/18 09:54:32;;;;;;;1.92;1.38;;;;;;;20.75;62.76;101145.00;4982056;28;20048;-80
2022/04/18 09:57:06;;;;;;;4.97;1.20;;;;;;;21.09;61.42;101148.03;4995399;28;20465;-82
2022/04/18 09:59:32;;;;;;;2.85;1.40;;;;;;;21.35;62.59;101143.16;5003695;28;20072;-83
2022/04/18 10:01:59;;;;;;;2.13;1.23;;;;;;;21.33;63.04;101129.72;4967521;28;20093;-80
2022/04/18 10:04:26;;;;;;;2.88;1.50;;;;;;;22.24;59.97;101132.78;4986022;28;20033;-80
2022/04/18 10:06:58;;;;;;;5.43;1.70;;;;;;;22.61;57.23;101132.38;4993504;28;20029;-82
2022/04/18 10:09:24;;;;;;;5.32;1.40;;;;;;;23.35;60.80;101131.41;4986773;28;20080;-81
2022/04/18 10:11:53;;;;;;;3.85;2.15;;;;;;;23.12;58.92;101130.53;4993584;28;20037;-83
2022/04/18 10:14:19;;;;;;;4.15;1.73;;;;;;;18.85;67.68;101130.34;4993661;28;20038;-81
2022/04/18 10:16:45;;;;;;;1.98;1.52;;;;;;;20.69;65.50;101132.25;4978900;28;21392;-78
2022/04/18 10:19:40;;;;;;;2.78;1.38;;;;;;;22.92;59.83;101116.47;4998734;28;20064;-80
2022/04/18 10:22:29;;;;;;;2.05;1.40;;;;;;;23.96;55.83;101121.28;4950781;28;20091;-78
2022/04/18 10:25:33;;;;;;;6.00;2.00;;;;;;;23.70;54.78;101117.34;4993849;28;20415;-80
2022/04/18 10:28:19;;;;;;;1.58;1.00;;;;;;;20.56;64.62;101113.31;4996397;28;20073;-80
2022/04/18 10:30:48;;;;;;;3.03;1.20;;;;;;;18.59;70.95;101112.25;4994248;28;20050;-82
2022/04/18 10:33:14;;;;;;;1.50;1.10;;;;;;;16.69;78.61;101120.50;4977727;28;20124;-82
2022/04/18 10:36:09;;;;;;;4.70;1.40;;;;;;;14.55;79.05;101119.50;4970130;28;20099;-80
2022/04/18 10:38:36;;;;;;;3.83;1.40;;;;;;;12.65;87.88;101110.19;4998983;28;20064;-81
2022/04/18 10:41:31;;;;;;;1.40;0.75;;;;;;;11.07;91.55;101147.09;4977264;28;20148;-81
2022/04/18 10:44:01;;;;;;;1.58;0.77;;;;;;;8.62;86.72;101158.41;4958972;28;20503;-89
2022/04/18 10:46:27;;;;;;;0.30;0.30;;;;;;;6.53;91.14;101172.91;5011503;28;20033;-85
2022/04/18 10:49:00;;;;;;;0.30;0.30;;;;;;;5.66;100.00;101170.84;5005013;28;20045;-84
2022/04/18 10:51:36;;;;;;;0.40;0.40;;;;;;;5.55;100.00;101170.09;4982847;28;20066;-84
2022/04/18 10:54:20;;;;;;;0.40;0.40;;;;;;;5.61;100.00;101162.41;4978570;28;20053;-87
2022/04/18 10:56:48;;;;;;;0.50;0.50;;;;;;;5.99;100.00;101179.56;4980220;28;20455;-86
2022/04/18 10:59:14;;;;;;;0.47;0.47;;;;;;;6.39;100.00;101181.34;4981778;28;20475;-86
2022/04/18 11:01:40;;;;;;;0.40;0.40;;;;;;;6.73;100.00;101184.47;5001755;28;20554;-86
2022/04/18 11:04:12;;;;;;;0.40;0.40;;;;;;;7.09;100.00;101182.03;4984824;28;20037;-85
2022/04/18 11:06:40;;;;;;;0.50;0.50;;;;;;;7.59;100.00;101186.31;4987715;28;20038;-84
2022/04/18 11:09:08;;;;;;;0.50;0.50;;;;;;;8.54;100.00;101179.78;4995687;28;20049;-87
2022/04/18 11:11:43;;;;;;;0.60;0.60;;;;;;;10.49;100.00;101182.00;4994275;28;20070;-82
2022/04/18 11:15:11;;;;;;;0.80;0.80;;;;;;;14.31;86.31;101169.38;4997420;28;20510;-83
2022/04/18 11:17:38;;;;;;;0.80;0.80;;;;;;;16.58;78.51;101169.97;4942243;29;20039;-87
2022/04/18 11:20:29;;;;;;;0.80;0.80;;;;;;;17.91;73.25;101164.53;4940347;28;20516;-83
2022/04/18 11:23:19;;;;;;;0.70;0.70;;;;;;;18.82;70.14;101165.38;4965019;28;20060;-85
2022/04/18 11:26:05;;;;;;;0.70;0.70;;;;;;;19.50;66.17;101157.25;4984738;28;20046;-86
2022/04/18 11:28:39;;;;;;;0.60;0.60;;;;;;;19.38;67.08;101156.28;4974623;28;20029;-85
2022/04/18 11:31:18;;;;;;;0.70;0.70;;;;;;;19.08;68.77;101156.16;4997470;28;20042;-86
2022/04/18 11:33:44;;;;;;;0.60;0.60;;;;;;;18.80;69.39;101154.69;4969663;28;20486;-84
2022/04/18 11:36:18;;;;;;;0.60;0.60;;;;;;;17.42;74.60;101160.44;5009023;28;20069;-83
2022/04/18 11:38:44;;;;;;;0.70;0.70;;;;;;;18.36;72.23;101145.50;4994853;28;20041;-82
2022/04/18 11:41:12;;;;;;;0.50;0.50;;;;;;;16.93;74.82;101107.38;4975501;28;20050;-86
2022/04/18 11:43:37;;;;;;;0.60;0.60;;;;;;;16.02;77.87;101137.66;4976390;28;20053;-84
2022/04/18 11:46:09;;;;;;;0.80;0.80;;;;;;;17.94;73.96;101147.81;4976618;28;20794;-82
2022/04/18 11:48:35;;;;;;;0.80;0.80;;;;;;;17.64;73.01;101146.59;4957193;28;20081;-81
2022/04/18 11:51:01;;;;;;;0.40;0.40;;;;;;;15.44;80.48;101134.41;4990334;28;20038;-81